Time;durP1;ratioP1;P1;durP2;ratioP2;P2;SDS_P1;SDS_P2;PMS_P1;PMS_P2;Temp;Humidity;BMP_temperature;BMP_pressure;BME280_temperature;BME280_humidity;BME280_pressure;Samples;Min_cycle;Max_cycle;Signal;HPM_P1;HPM_P2
2021/05/04 00:01:53;;;;;;;0.00;0.00;;;;;;;6.29;80.49;100725.97;10554465;28;20092;-63
2021/05/04 00:06:54;;;;;;;0.07;0.07;;;;;;;6.34;80.00;100692.00;10557693;28;20023;-63
2021/05/04 00:11:54;;;;;;;0.00;0.00;;;;;;;6.36;79.35;100665.41;10550719;28;20274;-63
2021/05/04 00:16:54;;;;;;;0.00;0.00;;;;;;;6.53;77.06;100646.22;10562509;28;20265;-63
2021/05/04 00:21:55;;;;;;;0.03;0.03;;;;;;;6.60;76.88;100629.78;10556313;28;20304;-63
2021/05/04 00:26:55;;;;;;;0.00;0.00;;;;;;;6.62;76.70;100627.84;10554110;28;20020;-63
2021/05/04 00:31:55;;;;;;;0.00;0.00;;;;;;;6.62;76.83;100615.44;10557565;28;20020;-63
2021/05/04 00:36:56;;;;;;;0.00;0.00;;;;;;;6.69;76.11;100624.53;10554886;28;20024;-63
2021/05/04 00:41:56;;;;;;;0.00;0.00;;;;;;;6.73;77.35;100617.97;10562300;28;20412;-63
2021/05/04 00:46:57;;;;;;;0.00;0.00;;;;;;;6.77;76.99;100602.63;10555036;28;20020;-63
2021/05/04 00:51:57;;;;;;;0.00;0.00;;;;;;;6.76;76.82;100583.25;10557003;28;20265;-63
2021/05/04 00:56:57;;;;;;;0.00;0.00;;;;;;;6.75;76.40;100556.94;10560225;28;20012;-63
2021/05/04 01:01:58;;;;;;;0.00;0.00;;;;;;;6.83;74.26;100556.22;10548319;28;20020;-63
2021/05/04 01:07:00;;;;;;;0.00;0.00;;;;;;;6.77;77.04;100547.88;10562242;28;20350;-63
2021/05/04 01:12:00;;;;;;;0.08;0.08;;;;;;;6.70;77.01;100533.53;10563332;28;20113;-63
2021/05/04 01:17:01;;;;;;;0.00;0.00;;;;;;;6.68;76.81;100503.72;10544282;28;20046;-63
2021/05/04 01:22:01;;;;;;;0.00;0.00;;;;;;;6.69;76.20;100471.00;10558625;28;20518;-63
2021/05/04 01:27:02;;;;;;;0.00;0.00;;;;;;;6.66;76.29;100444.81;10541794;28;20050;-63
2021/05/04 01:32:02;;;;;;;0.00;0.00;;;;;;;6.62;76.84;100411.66;10557142;28;20048;-64
2021/05/04 01:37:03;;;;;;;0.10;0.10;;;;;;;6.53;76.16;100386.06;10561606;28;20012;-63
2021/05/04 01:42:05;;;;;;;0.00;0.00;;;;;;;6.58;75.86;100381.19;10555581;28;20023;-62
2021/05/04 01:47:05;;;;;;;0.00;0.00;;;;;;;6.62;75.84;100361.38;10555204;28;20401;-63
2021/05/04 01:52:07;;;;;;;0.00;0.00;;;;;;;6.68;75.48;100371.38;10562178;28;20016;-63
2021/05/04 01:57:07;;;;;;;0.00;0.00;;;;;;;6.70;75.76;100363.31;10549868;28;20804;-63
2021/05/04 02:02:07;;;;;;;0.10;0.10;;;;;;;6.71;75.71;100344.63;10566098;28;20016;-63
2021/05/04 02:07:08;;;;;;;0.00;0.00;;;;;;;6.66;76.78;100309.00;10576114;28;20085;-62
2021/05/04 02:12:08;;;;;;;0.07;0.07;;;;;;;6.58;77.61;100284.09;10576347;28;20092;-63
2021/05/04 02:17:09;;;;;;;0.00;0.00;;;;;;;6.50;78.12;100246.94;10556199;28;20072;-63
2021/05/04 02:22:09;;;;;;;0.00;0.00;;;;;;;6.45;79.17;100213.97;10535362;28;20273;-63
2021/05/04 02:27:09;;;;;;;0.00;0.00;;;;;;;6.46;80.13;100197.16;10536296;28;20032;-63
2021/05/04 02:32:10;;;;;;;0.00;0.00;;;;;;;6.46;79.71;100195.31;10545262;28;20033;-63
2021/05/04 02:37:10;;;;;;;0.00;0.00;;;;;;;6.48;78.07;100184.56;10571737;28;20257;-63
2021/05/04 02:42:11;;;;;;;0.00;0.00;;;;;;;6.43;79.83;100137.41;10556540;28;20028;-63
2021/05/04 02:47:12;;;;;;;0.00;0.00;;;;;;;6.35;80.25;100103.78;10548009;28;20031;-63
2021/05/04 02:52:17;;;;;;;0.00;0.00;;;;;;;6.33;80.13;100089.03;10546267;28;20261;-63
2021/05/04 02:57:18;;;;;;;0.00;0.00;;;;;;;6.35;78.86;100072.03;10552126;28;20475;-63
2021/05/04 03:02:18;;;;;;;0.00;0.00;;;;;;;6.39;78.74;100046.09;10546483;28;20031;-63
2021/05/04 03:07:18;;;;;;;0.00;0.00;;;;;;;6.47;77.68;100042.72;10553356;28;20027;-63
2021/05/04 03:12:19;;;;;;;0.10;0.10;;;;;;;6.57;77.46;100032.84;10561424;28;20024;-63
2021/05/04 03:17:19;;;;;;;0.00;0.00;;;;;;;6.73;76.65;100009.19;10567443;28;20424;-63
2021/05/04 03:22:19;;;;;;;0.00;0.00;;;;;;;6.82;76.16;99998.66;10561372;28;20497;-63
2021/05/04 03:27:20;;;;;;;0.00;0.00;;;;;;;6.95;74.76;99986.69;10549228;28;20027;-63
2021/05/04 03:32:20;;;;;;;0.00;0.00;;;;;;;7.09;73.99;99982.59;10553962;28;20345;-63
2021/05/04 03:37:20;;;;;;;0.00;0.00;;;;;;;7.14;75.84;99972.38;10563469;28;20023;-63
2021/05/04 03:42:21;;;;;;;0.00;0.00;;;;;;;7.10;76.09;99949.84;10558185;28;20488;-63
2021/05/04 03:47:21;;;;;;;0.00;0.00;;;;;;;7.15;75.29;99936.94;10562114;28;20032;-63
2021/05/04 03:52:21;;;;;;;0.00;0.00;;;;;;;7.13;75.85;99930.16;10549620;28;20345;-63
2021/05/04 03:57:22;;;;;;;0.10;0.10;;;;;;;7.25;74.87;99913.81;10551129;28;20257;-63
2021/05/04 04:02:22;;;;;;;0.00;0.00;;;;;;;7.33;75.05;99897.13;10549157;27;20073;-63
2021/05/04 04:07:23;;;;;;;0.03;0.03;;;;;;;7.34;75.75;99888.19;10555973;27;20027;-63
2021/05/04 04:12:24;;;;;;;0.00;0.00;;;;;;;7.31;75.70;99882.38;10547726;28;20404;-63
2021/05/04 04:17:24;;;;;;;0.00;0.00;;;;;;;7.33;75.23;99875.09;10554457;28;20026;-63
2021/05/04 04:22:25;;;;;;;0.00;0.00;;;;;;;7.34;75.39;99850.28;10561131;27;20022;-64
2021/05/04 04:27:25;;;;;;;0.00;0.00;;;;;;;7.33;77.70;99843.31;10549682;27;20285;-63
2021/05/04 04:32:25;;;;;;;0.10;0.10;;;;;;;7.24;79.20;99834.50;10566520;28;20020;-63
2021/05/04 04:37:26;;;;;;;0.00;0.00;;;;;;;7.19;79.89;99850.06;10547622;28;20031;-63
2021/05/04 04:42:26;;;;;;;0.03;0.03;;;;;;;7.14;81.79;99828.53;10557338;28;20015;-63
2021/05/04 04:47:27;;;;;;;0.10;0.10;;;;;;;7.11;82.29;99824.38;10549799;27;20031;-63
2021/05/04 04:52:32;;;;;;;0.10;0.10;;;;;;;7.08;83.12;99808.00;10548385;28;20050;-63
2021/05/04 04:57:32;;;;;;;;;;;;;;;7.05;83.22;99803.03;10558684;22;20048;-66
2021/05/04 05:02:33;;;;;;;0.00;0.00;;;;;;;7.00;84.12;99800.84;10533228;28;19912;-66
2021/05/04 05:07:33;;;;;;;0.00;0.00;;;;;;;6.98;85.00;99790.44;10528707;28;20501;-66
2021/05/04 05:12:33;;;;;;;0.00;0.00;;;;;;;6.95;84.45;99769.59;10533225;28;20027;-68
2021/05/04 05:17:34;;;;;;;0.00;0.00;;;;;;;6.94;85.59;99748.56;10533057;28;20016;-68
2021/05/04 05:22:35;;;;;;;0.00;0.00;;;;;;;6.94;85.94;99744.06;10532950;28;20667;-68
2021/05/04 05:27:35;;;;;;;0.00;0.00;;;;;;;6.92;86.67;99729.34;10532356;28;20111;-68
2021/05/04 05:32:36;;;;;;;0.00;0.00;;;;;;;6.90;86.90;99715.47;10532269;28;20073;-68
2021/05/04 05:37:36;;;;;;;0.00;0.00;;;;;;;6.88;87.29;99709.50;10532651;28;20035;-68
2021/05/04 05:42:37;;;;;;;0.00;0.00;;;;;;;6.91;87.34;99704.69;10533078;28;20040;-66
2021/05/04 05:47:37;;;;;;;0.00;0.00;;;;;;;6.90;87.39;99679.22;10532371;28;20035;-66
2021/05/04 05:52:39;;;;;;;0.00;0.00;;;;;;;6.90;87.69;99681.88;10532250;28;20024;-66
2021/05/04 05:57:39;;;;;;;0.00;0.00;;;;;;;6.97;87.31;99652.91;10531451;28;20054;-66
2021/05/04 06:02:40;;;;;;;0.00;0.00;;;;;;;7.08;86.15;99642.00;10532101;28;20077;-67
2021/05/04 06:07:41;;;;;;;0.00;0.00;;;;;;;7.19;85.95;99635.56;10532206;28;20028;-67
2021/05/04 06:12:41;;;;;;;0.00;0.00;;;;;;;7.22;85.62;99632.56;10531477;28;20736;-67
2021/05/04 06:17:41;;;;;;;0.00;0.00;;;;;;;7.28;85.83;99620.47;10531674;28;20030;-67
2021/05/04 06:22:42;;;;;;;0.10;0.10;;;;;;;7.42;84.96;99614.50;10531145;28;20028;-67
2021/05/04 06:27:42;;;;;;;0.00;0.00;;;;;;;7.41;84.54;99596.94;10531760;28;20048;-68
2021/05/04 06:32:43;;;;;;;0.10;0.10;;;;;;;7.41;84.53;99589.81;10531028;28;20016;-68
2021/05/04 06:37:44;;;;;;;0.00;0.00;;;;;;;7.54;84.16;99589.31;10532062;28;20023;-68
2021/05/04 06:42:44;;;;;;;0.10;0.10;;;;;;;7.72;83.35;99574.00;10539198;28;20398;-68
2021/05/04 06:47:45;;;;;;;0.00;0.00;;;;;;;8.00;82.40;99555.00;10538973;28;20024;-68
2021/05/04 06:52:45;;;;;;;0.00;0.00;;;;;;;8.20;82.70;99550.06;10538976;28;20050;-68
2021/05/04 06:57:46;;;;;;;0.10;0.10;;;;;;;8.54;80.70;99536.44;10538339;28;20262;-68
2021/05/04 07:02:47;;;;;;;0.10;0.10;;;;;;;8.54;80.30;99539.09;10538861;28;20278;-69
2021/05/04 07:07:47;;;;;;;0.10;0.10;;;;;;;8.36;80.61;99514.66;10538285;28;20043;-69
2021/05/04 07:12:48;;;;;;;0.00;0.00;;;;;;;8.31;81.65;99527.63;10537899;28;20445;-69
2021/05/04 07:17:48;;;;;;;0.10;0.10;;;;;;;8.24;81.55;99513.44;10537903;28;20073;-69
2021/05/04 07:22:54;;;;;;;0.00;0.00;;;;;;;8.21;80.96;99500.50;10538118;28;20020;-69
2021/05/04 07:27:55;;;;;;;0.03;0.03;;;;;;;8.21;81.22;99505.81;10537581;28;20016;-69
2021/05/04 07:32:55;;;;;;;0.10;0.10;;;;;;;8.33;82.39;99494.59;10537422;28;20104;-69
2021/05/04 07:37:56;;;;;;;0.10;0.10;;;;;;;8.38;81.34;99484.34;10537381;28;20012;-69
2021/05/04 07:42:56;;;;;;;0.00;0.00;;;;;;;8.44;80.03;99458.91;10536877;28;20049;-69
2021/05/04 07:47:58;;;;;;;0.00;0.00;;;;;;;8.63;80.36;99465.53;10536362;28;20281;-69
2021/05/04 07:52:59;;;;;;;0.05;0.05;;;;;;;9.31;79.67;99474.31;10535219;28;20497;-67
2021/05/04 07:57:59;;;;;;;0.08;0.08;;;;;;;9.48;79.17;99445.69;10535594;28;20019;-68
2021/05/04 08:03:00;;;;;;;0.10;0.10;;;;;;;9.46;77.49;99442.41;10535817;28;20103;-67
2021/05/04 08:08:00;;;;;;;0.10;0.10;;;;;;;9.34;78.35;99430.59;10535913;28;20028;-68
2021/05/04 08:13:05;;;;;;;0.10;0.10;;;;;;;9.58;78.16;99413.50;10535541;28;20035;-68
2021/05/04 08:18:10;;;;;;;0.10;0.10;;;;;;;9.97;76.96;99408.59;10535442;28;20246;-68
2021/05/04 08:23:11;;;;;;;0.10;0.10;;;;;;;10.68;75.20;99410.47;10535449;28;20455;-67
2021/05/04 08:28:11;;;;;;;0.10;0.10;;;;;;;11.21;73.51;99418.75;10533697;28;20030;-67
2021/05/04 08:33:11;;;;;;;0.10;0.10;;;;;;;10.73;72.46;99420.53;10535120;28;20020;-69
2021/05/04 08:38:13;;;;;;;0.10;0.10;;;;;;;11.22;71.86;99393.75;10534982;28;20036;-66
2021/05/04 08:43:20;;;;;;;0.10;0.10;;;;;;;10.62;71.45;99403.25;10534862;28;20434;-68
2021/05/04 08:48:21;;;;;;;0.10;0.10;;;;;;;10.31;72.90;99407.09;10533703;28;20020;-68
2021/05/04 08:53:21;;;;;;;0.10;0.10;;;;;;;10.23;73.30;99391.22;10533934;28;20393;-68
2021/05/04 08:58:23;;;;;;;0.10;0.10;;;;;;;10.30;73.92;99409.97;10533594;28;20023;-68
2021/05/04 09:03:33;;;;;;;0.10;0.10;;;;;;;10.11;73.72;99417.53;10533252;28;20020;-69
2021/05/04 09:24:23;;;;;;;0.10;0.10;;;;;;;10.05;77.01;99393.53;10536360;28;19908;-68
2021/05/04 09:29:38;;;;;;;0.10;0.10;;;;;;;10.19;77.95;99389.97;10535168;28;20023;-68
2021/05/04 09:34:48;;;;;;;0.10;0.10;;;;;;;10.30;77.42;99373.53;10532367;28;20483;-68
2021/05/04 09:39:49;;;;;;;0.10;0.10;;;;;;;10.24;77.33;99374.28;10532972;28;20106;-66
2021/05/04 09:44:50;;;;;;;0.10;0.10;;;;;;;10.05;78.71;99357.13;10533356;28;20108;-68
2021/05/04 09:49:51;;;;;;;0.10;0.10;;;;;;;9.72;78.31;99375.44;10533697;28;20270;-68
2021/05/04 09:54:52;;;;;;;0.10;0.10;;;;;;;9.51;81.47;99376.19;10530944;28;20020;-68
2021/05/04 09:59:52;;;;;;;0.10;0.10;;;;;;;9.28;82.56;99345.31;10532205;28;20020;-69
2021/05/04 10:04:53;;;;;;;0.10;0.10;;;;;;;9.05;83.66;99366.69;10531909;28;20031;-69
2021/05/04 10:09:54;;;;;;;0.10;0.10;;;;;;;9.14;84.01;99350.66;10530591;28;20020;-69
2021/05/04 10:15:01;;;;;;;0.10;0.10;;;;;;;9.32;82.99;99344.94;10536915;28;20020;-69
2021/05/04 10:20:09;;;;;;;0.00;0.00;;;;;;;9.43;78.07;99331.97;10530517;28;20028;-69
2021/05/04 10:25:13;;;;;;;0.10;0.10;;;;;;;9.75;80.27;99325.34;10523024;28;20020;-69
2021/05/04 10:30:18;;;;;;;0.00;0.00;;;;;;;10.36;78.77;99313.38;10531801;28;20031;-69
2021/05/04 10:35:31;;;;;;;0.10;0.10;;;;;;;11.17;76.30;99308.25;10536291;28;20031;-69
2021/05/04 10:40:34;;;;;;;0.10;0.10;;;;;;;11.77;75.34;99301.19;10534897;28;20123;-67
2021/05/04 10:45:39;;;;;;;0.10;0.10;;;;;;;11.96;71.63;99291.59;10535292;28;20039;-69
2021/05/04 10:50:56;;;;;;;;;;;;;;;12.35;70.07;99311.25;10540521;28;20065;-68
2021/05/04 10:55:56;;;;;;;0.10;0.10;;;;;;;12.45;68.62;99303.66;10574039;22;20438;-64
2021/05/04 11:01:07;;;;;;;0.10;0.10;;;;;;;12.18;70.30;99297.50;10582781;28;20096;-65
2021/05/04 11:06:15;;;;;;;0.10;0.10;;;;;;;12.28;70.06;99294.44;10582135;28;20055;-64
2021/05/04 11:11:22;;;;;;;0.10;0.10;;;;;;;12.25;70.00;99302.88;10582049;28;20454;-65
2021/05/04 11:16:35;;;;;;;0.10;0.10;;;;;;;11.63;69.87;99291.53;10541944;28;20093;-63
2021/05/04 11:21:52;;;;;;;0.10;0.10;;;;;;;11.22;71.07;99271.16;10562714;28;20049;-63
2021/05/04 11:27:05;;;;;;;0.10;0.10;;;;;;;10.92;73.37;99268.00;10589044;27;20420;-64
2021/05/04 11:32:19;;;;;;;0.10;0.10;;;;;;;10.66;75.23;99268.69;10610752;27;20088;-64
2021/05/04 11:37:19;;;;;;;0.10;0.10;;;;;;;10.57;76.12;99254.72;10621999;27;20015;-65
2021/05/04 11:42:41;;;;;;;0.10;0.10;;;;;;;10.38;76.77;99264.25;10593736;27;20024;-63
2021/05/04 11:47:44;;;;;;;0.10;0.10;;;;;;;10.11;78.42;99299.66;10567708;28;20042;-65
2021/05/04 11:52:50;;;;;;;0.10;0.10;;;;;;;9.83;78.22;99307.59;10579386;27;20358;-64
2021/05/04 11:58:21;;;;;;;0.10;0.10;;;;;;;9.53;80.52;99302.41;10585187;27;20022;-64
2021/05/04 12:03:22;;;;;;;0.10;0.10;;;;;;;9.52;81.44;99300.78;10579342;28;20584;-64
2021/05/04 12:08:23;;;;;;;0.10;0.10;;;;;;;9.53;82.57;99284.63;10584193;27;20024;-64
2021/05/04 12:13:25;;;;;;;0.10;0.10;;;;;;;9.49;80.80;99275.41;10578799;28;20019;-64
2021/05/04 12:18:30;;;;;;;0.10;0.10;;;;;;;9.25;82.52;99299.66;10583653;27;20021;-64
2021/05/04 12:23:43;;;;;;;0.10;0.10;;;;;;;9.05;83.87;99299.47;10620211;27;20027;-65
2021/05/04 12:28:46;;;;;;;0.10;0.10;;;;;;;9.28;83.55;99275.41;10574988;28;20057;-64
2021/05/04 12:33:52;;;;;;;0.10;0.10;;;;;;;9.56;83.98;99253.38;10573237;28;20102;-64
2021/05/04 12:49:20;;;;;;;0.10;0.10;;;;;;;9.30;86.04;99252.09;10602900;27;20303;-64
2021/05/04 12:54:22;;;;;;;0.10;0.10;;;;;;;9.77;84.22;99256.00;10612452;27;20485;-63
2021/05/04 12:59:27;;;;;;;0.10;0.10;;;;;;;9.63;83.42;99241.81;10574484;27;20043;-64
2021/05/04 13:04:58;;;;;;;0.05;0.05;;;;;;;9.61;83.78;99227.88;10576431;28;20061;-64
2021/05/04 13:16:01;;;;;;;0.00;0.00;;;;;;;9.42;84.40;99241.78;10611675;27;20054;-64
2021/05/04 13:28:14;;;;;;;0.10;0.10;;;;;;;9.18;85.39;99257.09;10614267;27;20141;-64
2021/05/04 13:31:35;;;;;;;0.00;0.00;;;;;;;8.80;84.89;99249.31;10593389;27;20027;-64
2021/05/04 13:36:35;;;;;;;0.10;0.10;;;;;;;9.75;84.21;99255.41;10617195;27;20465;-64
2021/05/04 13:52:13;;;;;;;0.00;0.00;;;;;;;10.38;74.94;99266.94;10578845;27;20024;-65
2021/05/04 13:57:16;;;;;;;0.10;0.10;;;;;;;9.89;77.96;99297.03;10582303;27;20028;-64
2021/05/04 14:28:38;;;;;;;0.08;0.08;;;;;;;8.69;80.19;99341.88;10574553;28;20053;-65
2021/05/04 14:33:39;;;;;;;0.10;0.10;;;;;;;8.29;79.28;99320.88;10575629;28;20386;-65
2021/05/04 14:38:47;;;;;;;0.10;0.10;;;;;;;8.34;78.81;99337.06;10574662;28;20854;-65
2021/05/04 14:44:17;;;;;;;0.10;0.10;;;;;;;8.77;78.26;99328.53;10575762;28;20053;-64
2021/05/04 15:00:04;;;;;;;0.10;0.10;;;;;;;9.52;74.16;99328.19;10566062;27;20043;-65
2021/05/04 15:05:07;;;;;;;0.00;0.00;;;;;;;9.36;74.88;99339.03;10612504;27;20510;-64
2021/05/04 15:10:08;;;;;;;0.10;0.10;;;;;;;9.20;75.27;99320.69;10586358;27;20023;-64
2021/05/04 15:15:14;;;;;;;0.00;0.00;;;;;;;8.98;74.07;99307.34;10585423;27;20368;-64
2021/05/04 15:25:33;;;;;;;0.10;0.10;;;;;;;9.01;76.33;99314.94;10580882;27;20019;-63
2021/05/04 15:30:34;;;;;;;0.00;0.00;;;;;;;9.30;75.35;99329.16;10577826;28;20027;-62
2021/05/04 15:35:36;;;;;;;0.10;0.10;;;;;;;9.41;74.35;99338.50;10579057;28;20113;-62
2021/05/04 15:40:37;;;;;;;0.00;0.00;;;;;;;9.50;75.31;99337.34;10581004;28;20039;-62
2021/05/04 15:45:55;;;;;;;0.10;0.10;;;;;;;9.55;73.62;99329.66;10581592;28;20028;-62
2021/05/04 16:11:32;;;;;;;0.10;0.10;;;;;;;8.94;76.58;99329.97;10578513;28;20510;-63
2021/05/04 16:16:34;;;;;;;0.10;0.10;;;;;;;8.79;77.23;99332.66;10587261;27;20023;-63
2021/05/04 16:21:38;;;;;;;0.10;0.10;;;;;;;8.76;76.56;99326.88;10581206;27;20019;-63
2021/05/04 16:26:58;;;;;;;;;;;;;;;8.72;76.07;99326.41;10594431;27;20019;-64
2021/05/04 16:31:58;;;;;;;0.00;0.00;;;;;;;8.71;75.56;99316.00;10609658;27;19986;-64
2021/05/04 16:36:59;;;;;;;0.10;0.10;;;;;;;8.69;76.88;99315.34;10610379;27;20098;-63
2021/05/04 16:41:59;;;;;;;0.10;0.10;;;;;;;8.65;76.18;99311.41;10607156;27;20020;-64
2021/05/04 16:47:01;;;;;;;0.10;0.10;;;;;;;8.58;76.01;99316.63;10607366;27;20679;-64
2021/05/04 16:52:03;;;;;;;0.10;0.10;;;;;;;8.51;75.76;99308.56;10608906;27;20076;-63
2021/05/04 16:57:04;;;;;;;0.00;0.00;;;;;;;8.54;75.11;99318.81;10590856;27;20503;-64
2021/05/04 17:02:07;;;;;;;0.10;0.10;;;;;;;8.54;75.97;99313.50;10595246;22;20043;-66
2021/05/04 17:12:11;;;;;;;0.00;0.00;;;;;;;8.56;75.34;99314.16;10594367;27;20142;-66
2021/05/04 17:17:12;;;;;;;0.10;0.10;;;;;;;8.60;75.78;99310.13;10596755;27;20015;-66
2021/05/04 17:22:12;;;;;;;0.10;0.10;;;;;;;8.61;75.36;99293.22;10594164;27;20261;-66
2021/05/04 17:27:12;;;;;;;0.00;0.00;;;;;;;8.54;74.77;99291.47;10595212;27;20042;-66
2021/05/04 17:32:13;;;;;;;0.03;0.03;;;;;;;8.46;74.78;99295.00;10593735;27;20474;-66
2021/05/04 17:37:13;;;;;;;0.00;0.00;;;;;;;8.33;78.21;99295.63;10581972;27;20028;-66
2021/05/04 17:42:13;;;;;;;0.10;0.10;;;;;;;8.14;80.26;99307.59;10598999;27;20424;-66
2021/05/04 17:47:15;;;;;;;0.10;0.10;;;;;;;8.10;82.07;99335.47;10593823;27;20450;-66
2021/05/04 17:52:16;;;;;;;0.00;0.00;;;;;;;8.13;82.26;99316.53;10602386;27;20030;-66
2021/05/04 17:57:16;;;;;;;0.08;0.08;;;;;;;8.15;81.08;99293.34;10609978;27;20094;-66
2021/05/04 18:02:16;;;;;;;0.10;0.10;;;;;;;8.10;80.21;99330.16;10589859;27;20015;-66
2021/05/04 18:07:21;;;;;;;0.00;0.00;;;;;;;8.01;80.51;99328.59;10602262;28;20028;-66
2021/05/04 18:12:36;;;;;;;0.00;0.00;;;;;;;7.77;81.78;99339.41;10590489;28;20486;-66
2021/05/04 18:22:56;;;;;;;0.10;0.10;;;;;;;7.27;81.87;99330.94;10593241;28;20031;-67
2021/05/04 18:28:01;;;;;;;0.00;0.00;;;;;;;7.14;82.44;99341.28;10603339;27;20429;-66
2021/05/04 18:33:02;;;;;;;0.10;0.10;;;;;;;7.14;80.80;99330.69;10586878;28;20034;-67
2021/05/04 18:38:17;;;;;;;0.00;0.00;;;;;;;7.14;81.54;99334.16;10593648;27;20051;-66
2021/05/04 20:01:36;;;;;;;0.00;0.00;;;;;;;7.13;81.02;99353.72;10605958;27;20015;-67
2021/05/04 20:12:40;;;;;;;0.00;0.00;;;;;;;7.14;80.82;99352.69;10597615;27;20019;-66
2021/05/04 20:17:46;;;;;;;0.00;0.00;;;;;;;7.14;80.54;99347.41;10592674;27;20058;-67
2021/05/04 20:22:48;;;;;;;0.08;0.08;;;;;;;7.10;81.72;99345.25;10608363;27;20030;-66
2021/05/04 20:27:49;;;;;;;0.00;0.00;;;;;;;7.07;79.15;99333.22;10603577;27;20027;-66
2021/05/04 20:32:50;;;;;;;0.00;0.00;;;;;;;7.14;79.13;99346.59;10595761;27;20035;-66
2021/05/04 20:37:51;;;;;;;0.00;0.00;;;;;;;7.19;77.86;99342.41;10600697;27;20068;-66
2021/05/04 20:42:51;;;;;;;0.00;0.00;;;;;;;7.22;77.79;99328.81;10589133;27;20076;-66
2021/05/04 20:47:55;;;;;;;0.00;0.00;;;;;;;7.23;77.76;99345.53;10593403;27;20042;-66
2021/05/04 20:52:56;;;;;;;0.00;0.00;;;;;;;7.21;77.87;99347.53;10591638;27;20047;-66
2021/05/04 20:57:57;;;;;;;0.00;0.00;;;;;;;7.19;76.89;99344.25;10593022;27;20533;-65
2021/05/04 21:02:57;;;;;;;0.00;0.00;;;;;;;7.15;77.47;99341.09;10592960;27;20102;-66
2021/05/04 21:07:58;;;;;;;0.00;0.00;;;;;;;7.14;77.07;99352.69;10590750;27;20011;-66
2021/05/04 21:12:58;;;;;;;0.00;0.00;;;;;;;7.12;76.79;99349.38;10604748;27;20019;-66
2021/05/04 21:18:00;;;;;;;0.05;0.05;;;;;;;7.12;77.20;99353.88;10604502;27;20011;-66
2021/05/04 21:24:09;;;;;;;0.10;0.10;;;;;;;7.08;76.28;99348.09;10590910;27;20093;-65
2021/05/04 21:28:31;;;;;;;0.00;0.00;;;;;;;7.05;77.18;99371.44;10570835;27;20042;-65
2021/05/04 21:33:31;;;;;;;0.00;0.00;;;;;;;7.05;76.11;99364.31;10599606;27;20012;-65
2021/05/04 21:38:32;;;;;;;0.00;0.00;;;;;;;7.06;75.64;99360.69;10594056;27;20041;-65
2021/05/04 21:43:32;;;;;;;0.00;0.00;;;;;;;7.03;76.72;99363.66;10604082;27;20018;-66
2021/05/04 21:48:32;;;;;;;0.00;0.00;;;;;;;6.99;76.48;99357.06;10593906;27;20282;-66
2021/05/04 21:53:33;;;;;;;0.00;0.00;;;;;;;6.93;77.51;99355.13;10598319;27;20614;-66
2021/05/04 21:58:33;;;;;;;0.00;0.00;;;;;;;6.91;78.51;99346.50;10604473;27;20055;-66
2021/05/04 22:03:33;;;;;;;0.10;0.10;;;;;;;6.91;78.00;99349.16;10594972;28;20031;-66
2021/05/04 22:08:34;;;;;;;0.00;0.00;;;;;;;6.89;79.25;99338.72;10595505;27;20015;-65
2021/05/04 22:40:15;;;;;;;0.00;0.00;;;;;;;6.77;78.10;99348.88;10518019;28;20480;-65
2021/05/04 23:17:31;;;;;;;0.00;0.00;;;;;;;6.58;79.54;99331.56;10601201;27;20106;-62
2021/05/04 23:22:31;;;;;;;0.00;0.00;;;;;;;6.57;79.80;99329.09;10612624;27;20080;-62
2021/05/04 23:27:32;;;;;;;0.00;0.00;;;;;;;6.56;79.76;99338.84;10587159;27;20020;-62
2021/05/04 23:32:32;;;;;;;0.03;0.03;;;;;;;6.48;79.98;99322.16;10591030;27;20098;-62
2021/05/04 23:37:33;;;;;;;0.03;0.03;;;;;;;6.38;80.56;99316.25;10579773;28;20390;-61
2021/05/04 23:42:33;;;;;;;0.00;0.00;;;;;;;6.35;80.39;99315.59;10609548;27;20303;-60
2021/05/04 23:47:33;;;;;;;0.00;0.00;;;;;;;6.40;80.08;99314.25;10604882;27;20015;-61
2021/05/04 23:52:34;;;;;;;0.00;0.00;;;;;;;6.47;78.16;99318.72;10609307;27;20026;-61
2021/05/04 23:57:34;;;;;;;0.00;0.00;;;;;;;6.53;77.98;99312.72;10601885;27;20466;-62
